Fort Benton, MT (59442)

2:21 AM MST on February 01, 2015 (GMT -0700)
North Fort Benton | Change Station
CLOSE
Current Station
Personal Weather Station
Location: Fort Benton, MT
Elevation: 2641 ft
Nearby Weather Stations

Elev 2641 ft 47.83 °N, 110.66 °W | Updated 1 second ago

Mostly Cloudy
Mostly Cloudy
-8.0 °F
Feels Like -8 °F
N
1.6
Wind Variable Wind from NW
Gusts 1.6 mph

Today
High -- | Low -- °F
--% Chance of Precip.
Yesterday
High -- | Low -- °F
Precip. -- in
7:50 AM 5:23 PM
Waxing Gibbous, 94% visible
Pressure 30.71 in
Visibility 10.0 miles
Clouds Clear
Windchill -8 °F
Dew Point -17 °F
Humidity 62%
Rainfall 0.00 in
Snow Depth Not available.
UV 0 out of 12
Pollen .30 out of 12
Air Quality Not available.
Flu Activity Not available.
METAR KGFA 010856Z AUTO 17005KT 10SM CLR M22/M24 A3036 RMK AO2 SLP397 T12201236 58002

More Conditions Fewer Conditions

Pressure 30.71 in
Visibility 10.0 miles
Clouds Clear
Windchill -8 °F
Dew Point -17 °F
Humidity 62%
Rainfall 0.00 in
Snow Depth Not available.
UV 0 out of 12
Pollen .30 out of 12
Air Quality Not available.
Flu Activity Not available.
METAR KGFA 010856Z AUTO 17005KT 10SM CLR M22/M24 A3036 RMK AO2 SLP397 T12201236 58002

More Conditions Fewer Conditions

10-Day Weather Forecast

Almanac

Astronomy

Feb. 01, 2015 Rise Set
Actual Time
Civil Twilight
Nautical Twilight
Astronomical Twilight
Moon
Length of Visible Light
Length of Day
Tomorrow will be .
, % of the Moon is Illuminated

Today's Extremes

State Highs State Lows

Community

WunderPhotos

Upload Photos

1,792,338 photos uploaded!

WunderBlogs® & News

Nearby

Air Quality

  Air Quality AQ Index Pollutant
Not available.

Snow Depth

Station Depth Elevation

Earthquake Activity

City Distance Mag. Time & Date
Minimum magnitude displayed is 2.5.

Coastal Water Temperatures

Place Temperature

Nearby Weather Stations